Time;durP1;ratioP1;P1;durP2;ratioP2;P2;SDS_P1;SDS_P2;PMS_P1;PMS_P2;Temp;Humidity;BMP_temperature;BMP_pressure;BME280_temperature;BME280_humidity;BME280_pressure;Samples;Min_cycle;Max_cycle;Signal;HPM_P1;HPM_P2
2022/09/07 00:00:42;;;;;;;9.20;7.40;;;19.30;97.40;;;;;;5052099;28;20118;-68
2022/09/07 00:03:08;;;;;;;12.93;9.02;;;19.20;97.80;;;;;;5052173;28;20036;-68
2022/09/07 00:05:39;;;;;;;14.63;7.85;;;19.10;98.00;;;;;;5051184;28;20045;-68
2022/09/07 00:08:05;;;;;;;12.23;9.00;;;19.20;98.30;;;;;;5052068;28;20391;-68
2022/09/07 00:10:30;;;;;;;10.95;8.30;;;19.20;99.20;;;;;;5051628;28;20050;-68
2022/09/07 00:12:56;;;;;;;10.02;8.77;;;19.20;99.90;;;;;;5052105;28;20037;-68
2022/09/07 00:15:21;;;;;;;11.65;8.48;;;19.20;99.90;;;;;;5052166;28;20041;-68
2022/09/07 00:17:47;;;;;;;12.82;7.88;;;19.20;99.90;;;;;;5050626;28;20510;-68
2022/09/07 00:20:13;;;;;;;12.75;8.50;;;19.20;99.90;;;;;;5051563;28;20040;-68
2022/09/07 00:22:39;;;;;;;14.77;8.68;;;19.20;99.70;;;;;;5050813;28;20094;-68
2022/09/07 00:25:05;;;;;;;12.43;8.18;;;19.30;99.60;;;;;;5051637;28;20044;-68
2022/09/07 00:27:31;;;;;;;10.38;7.95;;;19.20;99.50;;;;;;5051737;28;20033;-68
2022/09/07 00:29:56;;;;;;;11.55;8.70;;;19.20;99.90;;;;;;5051719;28;20040;-68
2022/09/07 00:32:22;;;;;;;13.27;8.75;;;19.00;99.90;;;;;;5051721;28;20418;-68
2022/09/07 00:34:49;;;;;;;12.45;9.27;;;19.10;99.90;;;;;;5051698;28;20045;-68
2022/09/07 00:37:15;;;;;;;13.25;8.85;;;19.00;99.90;;;;;;5051737;28;20080;-68
2022/09/07 00:39:41;;;;;;;9.85;8.55;;;18.70;99.90;;;;;;5051321;28;20486;-69
2022/09/07 00:42:06;;;;;;;10.68;8.50;;;18.80;99.90;;;;;;5051748;28;20086;-68
2022/09/07 00:44:58;;;;;;;10.05;8.65;;;18.70;99.90;;;;;;5051654;28;20052;-68
2022/09/07 00:47:49;;;;;;;13.57;8.18;;;18.80;99.90;;;;;;5050306;28;20053;-68
2022/09/07 00:50:32;;;;;;;9.90;8.43;;;18.70;99.90;;;;;;5051124;28;20041;-68
2022/09/07 00:53:08;;;;;;;13.27;9.52;;;18.70;99.90;;;;;;5050291;28;20041;-68
2022/09/07 00:55:35;;;;;;;9.88;8.73;;;18.80;99.90;;;;;;5051592;28;20037;-68
2022/09/07 00:58:02;;;;;;;9.82;8.82;;;18.80;99.90;;;;;;5051573;28;20040;-68
2022/09/07 01:00:29;;;;;;;13.05;8.82;;;18.80;99.90;;;;;;5049835;28;20049;-68
2022/09/07 01:02:57;;;;;;;11.73;9.23;;;18.50;99.90;;;;;;5051556;28;20460;-68
2022/09/07 01:05:44;;;;;;;14.70;10.20;;;18.60;99.90;;;;;;5051289;28;20542;-68
2022/09/07 01:08:12;;;;;;;12.43;9.82;;;18.30;99.90;;;;;;5050107;28;20072;-68
2022/09/07 01:10:38;;;;;;;12.88;9.18;;;18.30;99.90;;;;;;5051056;28;20052;-68
2022/09/07 01:13:04;;;;;;;13.88;10.48;;;18.30;99.90;;;;;;5051236;28;20098;-68
2022/09/07 01:15:51;;;;;;;15.65;9.57;;;18.30;99.90;;;;;;5051730;28;20044;-68
2022/09/07 01:18:28;;;;;;;10.98;9.23;;;18.30;99.90;;;;;;5055351;28;20091;-68
2022/09/07 01:21:19;;;;;;;11.80;9.75;;;18.40;99.90;;;;;;5055155;28;20128;-69
2022/09/07 01:24:25;;;;;;;12.27;9.80;;;18.50;99.90;;;;;;5055148;28;20502;-68
2022/09/07 01:27:22;;;;;;;13.13;11.23;;;18.50;99.90;;;;;;5053326;28;20510;-68
2022/09/07 01:30:00;;;;;;;12.25;10.15;;;18.50;99.90;;;;;;5054983;28;20033;-68
2022/09/07 01:32:45;;;;;;;12.88;11.00;;;18.40;99.90;;;;;;5054901;28;20052;-68
2022/09/07 01:35:25;;;;;;;13.80;11.00;;;18.40;99.90;;;;;;5055083;28;20111;-69
2022/09/07 01:38:01;;;;;;;16.75;10.82;;;18.40;99.90;;;;;;5053588;28;20045;-69
2022/09/07 01:40:44;;;;;;;13.45;10.20;;;18.20;99.90;;;;;;5053298;28;20045;-68
2022/09/07 01:43:58;;;;;;;17.23;11.23;;;18.30;99.90;;;;;;5054879;28;20041;-69
2022/09/07 01:46:35;;;;;;;14.13;10.50;;;18.30;99.90;;;;;;5049488;28;20057;-69
2022/09/07 01:49:22;;;;;;;21.67;10.80;;;18.10;99.90;;;;;;5053659;28;20407;-69
2022/09/07 01:51:54;;;;;;;13.68;11.32;;;18.20;99.90;;;;;;5054731;28;20041;-68
2022/09/07 01:54:29;;;;;;;15.52;11.77;;;18.20;99.90;;;;;;5054758;28;20067;-68
2022/09/07 01:56:59;;;;;;;15.57;12.43;;;18.10;99.90;;;;;;5054453;28;20632;-69
2022/09/07 01:59:49;;;;;;;18.35;13.40;;;18.10;99.90;;;;;;5053248;28;20079;-68
2022/09/07 02:02:29;;;;;;;19.10;13.30;;;17.80;99.90;;;;;;5053072;28;20463;-69
2022/09/07 02:04:58;;;;;;;23.13;15.23;;;17.80;99.90;;;;;;5054433;28;20084;-68
2022/09/07 02:07:35;;;;;;;16.75;13.93;;;17.90;99.90;;;;;;5053018;28;20120;-69
2022/09/07 02:10:11;;;;;;;20.88;14.20;;;17.90;99.90;;;;;;5054316;28;20245;-68
2022/09/07 02:12:42;;;;;;;20.17;16.23;;;17.60;99.90;;;;;;5054217;28;20047;-68
2022/09/07 02:15:17;;;;;;;18.35;15.55;;;17.60;99.90;;;;;;5054308;28;20037;-68
2022/09/07 02:17:48;;;;;;;18.38;14.45;;;17.90;99.90;;;;;;5053131;28;20064;-68
2022/09/07 02:20:43;;;;;;;18.88;15.70;;;17.60;99.90;;;;;;5054149;28;20057;-69
2022/09/07 02:23:24;;;;;;;21.08;17.17;;;17.70;99.90;;;;;;5052352;28;20392;-69
2022/09/07 02:26:00;;;;;;;22.35;15.73;;;17.80;99.90;;;;;;5053981;28;20045;-69
2022/09/07 02:28:35;;;;;;;19.88;14.50;;;17.40;99.90;;;;;;5051929;28;20041;-68
2022/09/07 02:31:01;;;;;;;14.43;12.88;;;17.40;99.90;;;;;;5053956;28;20063;-69
2022/09/07 02:33:28;;;;;;;16.75;12.48;;;17.70;99.90;;;;;;5053737;28;20041;-69
2022/09/07 02:35:54;;;;;;;17.75;12.82;;;17.40;99.90;;;;;;5053819;28;20103;-69
2022/09/07 02:38:20;;;;;;;16.80;13.15;;;17.70;99.90;;;;;;5053699;28;20037;-69
2022/09/07 02:40:51;;;;;;;19.67;13.73;;;17.50;99.90;;;;;;5053726;28;20037;-69
2022/09/07 02:43:18;;;;;;;17.27;13.13;;;17.50;99.90;;;;;;5052396;28;20130;-69
2022/09/07 02:45:52;;;;;;;12.98;10.93;;;17.70;99.90;;;;;;5053629;28;20049;-68
2022/09/07 02:48:44;;;;;;;14.57;10.50;;;17.40;99.90;;;;;;5053213;28;20069;-68
2022/09/07 02:51:24;;;;;;;13.40;10.25;;;17.40;99.90;;;;;;5048831;28;20047;-68
2022/09/07 02:54:07;;;;;;;11.65;9.35;;;17.70;99.90;;;;;;5045105;28;20589;-69
2022/09/07 02:56:50;;;;;;;;;;;17.60;99.90;;;;;;5052637;28;20050;-69
2022/09/07 02:59:41;;;;;;;9.20;7.63;;;17.60;99.90;;;;;;5053059;28;19917;-69
2022/09/07 03:02:09;;;;;;;10.30;8.35;;;17.40;99.90;;;;;;5044231;28;20037;-68
2022/09/07 03:05:10;;;;;;;11.50;8.80;;;17.30;99.90;;;;;;5053196;28;20045;-68
2022/09/07 03:07:42;;;;;;;11.38;8.45;;;17.40;99.90;;;;;;5052953;28;20402;-69
2022/09/07 03:10:08;;;;;;;10.13;8.52;;;17.60;99.90;;;;;;5051660;28;20065;-68
2022/09/07 03:12:39;;;;;;;10.55;8.45;;;17.50;99.90;;;;;;5053029;28;20041;-69
2022/09/07 03:15:05;;;;;;;9.88;7.47;;;17.70;99.90;;;;;;5043396;28;20049;-69
2022/09/07 03:17:31;;;;;;;10.60;7.55;;;17.70;99.90;;;;;;5051772;28;20095;-68
2022/09/07 03:19:56;;;;;;;10.15;7.25;;;17.40;99.90;;;;;;5052627;28;20041;-68
2022/09/07 03:22:22;;;;;;;9.77;7.43;;;17.80;99.90;;;;;;5052789;28;20040;-68
2022/09/07 03:24:47;;;;;;;10.50;6.75;;;17.50;99.90;;;;;;5051707;28;20561;-68
2022/09/07 03:27:13;;;;;;;8.85;7.43;;;17.80;99.90;;;;;;5052968;28;20049;-69
2022/09/07 03:29:38;;;;;;;7.97;7.15;;;17.80;99.90;;;;;;5051145;28;20041;-69
2022/09/07 03:32:04;;;;;;;11.25;8.90;;;18.00;99.90;;;;;;5051402;28;20102;-68
2022/09/07 03:34:30;;;;;;;10.43;8.73;;;17.70;99.90;;;;;;5052676;28;20033;-68
2022/09/07 03:36:55;;;;;;;16.83;11.23;;;17.60;99.90;;;;;;5052610;28;20044;-69
2022/09/07 03:39:22;;;;;;;10.75;9.50;;;17.80;99.90;;;;;;5052445;28;20506;-69
2022/09/07 03:41:48;;;;;;;11.52;9.55;;;17.50;99.90;;;;;;5052526;28;20576;-69
2022/09/07 03:44:14;;;;;;;15.48;10.75;;;17.50;99.90;;;;;;5044135;28;20483;-68
2022/09/07 03:46:39;;;;;;;10.88;9.18;;;17.60;99.90;;;;;;5052476;28;20041;-69
2022/09/07 03:49:05;;;;;;;15.23;11.68;;;17.50;99.90;;;;;;5052335;28;20029;-68
2022/09/07 03:51:31;;;;;;;12.85;11.23;;;17.40;99.90;;;;;;5051936;28;20047;-69
2022/09/07 03:53:56;;;;;;;13.18;10.73;;;17.20;99.90;;;;;;5044042;28;20117;-68
2022/09/07 03:56:23;;;;;;;13.20;11.50;;;17.20;99.90;;;;;;5051493;28;20041;-68
2022/09/07 03:58:51;;;;;;;16.40;12.25;;;17.50;99.90;;;;;;5052185;28;20037;-68
2022/09/07 04:01:19;;;;;;;15.27;12.45;;;17.20;99.90;;;;;;5051879;28;20445;-69
2022/09/07 04:03:46;;;;;;;15.38;13.65;;;17.20;99.90;;;;;;5052097;28;20067;-68
2022/09/07 04:06:12;;;;;;;15.13;13.05;;;17.50;99.90;;;;;;5052290;28;20033;-68
2022/09/07 04:08:39;;;;;;;14.43;12.75;;;17.40;99.90;;;;;;5052115;28;20106;-68
2022/09/07 04:11:06;;;;;;;14.38;12.82;;;17.50;99.90;;;;;;5051880;28;20044;-68
2022/09/07 04:13:34;;;;;;;16.65;13.73;;;17.10;99.90;;;;;;5051888;28;20040;-68
2022/09/07 04:16:07;;;;;;;19.13;14.25;;;17.20;99.90;;;;;;5051950;28;20576;-68
2022/09/07 04:18:35;;;;;;;17.27;14.23;;;17.30;99.90;;;;;;5050835;28;20695;-68
2022/09/07 04:21:00;;;;;;;15.32;13.68;;;17.10;99.90;;;;;;5051648;28;20037;-68
2022/09/07 04:23:26;;;;;;;17.98;15.60;;;17.40;99.90;;;;;;5051890;28;20037;-68
2022/09/07 04:25:51;;;;;;;19.73;15.88;;;17.30;99.90;;;;;;5050365;28;20052;-69
2022/09/07 04:28:19;;;;;;;17.80;14.55;;;17.10;99.90;;;;;;5050422;28;20041;-68
2022/09/07 04:30:46;;;;;;;16.50;14.38;;;17.30;99.90;;;;;;5051399;28;20036;-68
2022/09/07 04:33:12;;;;;;;20.90;15.95;;;17.20;99.90;;;;;;5051587;28;20037;-68
2022/09/07 04:35:39;;;;;;;19.92;14.32;;;17.20;99.90;;;;;;5050650;28;20433;-68
2022/09/07 04:38:06;;;;;;;21.65;16.20;;;17.50;99.90;;;;;;5051602;28;20402;-68
2022/09/07 04:40:32;;;;;;;23.23;16.63;;;17.10;99.90;;;;;;5050245;28;20040;-68
2022/09/07 04:42:57;;;;;;;20.65;17.98;;;17.30;99.90;;;;;;5050305;28;20048;-68
2022/09/07 04:45:24;;;;;;;20.00;17.70;;;17.00;99.90;;;;;;5051372;28;20056;-68
2022/09/07 04:47:50;;;;;;;22.98;18.63;;;17.00;99.90;;;;;;5051827;28;20045;-68
2022/09/07 04:50:16;;;;;;;22.23;18.92;;;17.20;99.90;;;;;;5052084;28;20037;-68
2022/09/07 04:52:44;;;;;;;23.13;19.25;;;17.20;99.90;;;;;;5058194;28;20036;-68
2022/09/07 04:55:11;;;;;;;21.45;18.30;;;17.10;99.90;;;;;;5058118;28;20090;-68
2022/09/07 04:57:37;;;;;;;27.98;19.92;;;17.20;99.90;;;;;;5056784;28;20044;-68
2022/09/07 05:00:06;;;;;;;25.20;20.67;;;17.10;99.90;;;;;;5057600;28;20453;-68
2022/09/07 05:02:32;;;;;;;29.42;23.13;;;17.30;99.90;;;;;;5056709;28;20055;-68
2022/09/07 05:04:57;;;;;;;24.63;19.80;;;16.90;99.90;;;;;;5058134;28;20463;-68
2022/09/07 05:07:23;;;;;;;27.60;22.83;;;17.40;99.90;;;;;;5058018;28;20040;-68
2022/09/07 05:09:48;;;;;;;23.65;20.40;;;17.10;99.90;;;;;;5057755;28;20063;-68
2022/09/07 05:12:14;;;;;;;30.85;22.73;;;17.20;99.90;;;;;;5057951;28;20064;-68
2022/09/07 05:14:39;;;;;;;25.40;20.95;;;16.90;99.90;;;;;;5057904;28;20672;-68
2022/09/07 05:17:06;;;;;;;25.20;20.73;;;17.20;99.90;;;;;;5058203;28;20052;-68
2022/09/07 05:19:32;;;;;;;25.30;22.52;;;17.30;99.90;;;;;;5057733;28;20506;-68
2022/09/07 05:21:58;;;;;;;28.02;21.92;;;17.20;99.90;;;;;;5057835;28;20044;-68
2022/09/07 05:24:25;;;;;;;22.83;20.10;;;17.00;99.90;;;;;;5057902;28;20044;-68
2022/09/07 05:26:51;;;;;;;24.55;20.58;;;17.30;99.90;;;;;;5056686;28;20041;-68
2022/09/07 05:29:17;;;;;;;25.25;20.20;;;17.40;99.90;;;;;;5057519;28;20037;-68
2022/09/07 05:31:44;;;;;;;28.50;21.00;;;17.20;99.90;;;;;;5056661;28;20055;-68
2022/09/07 05:34:09;;;;;;;23.15;20.00;;;17.50;99.90;;;;;;5058036;28;20033;-68
2022/09/07 05:36:35;;;;;;;26.30;19.45;;;17.20;99.90;;;;;;5057932;28;20044;-68
2022/09/07 05:39:02;;;;;;;28.35;21.00;;;17.40;99.90;;;;;;5058028;28;20403;-69
2022/09/07 05:41:28;;;;;;;23.15;20.65;;;17.20;99.90;;;;;;5056306;28;20095;-68
2022/09/07 05:43:54;;;;;;;25.38;19.52;;;17.30;99.90;;;;;;5056687;28;20494;-68
2022/09/07 05:46:20;;;;;;;27.55;22.52;;;17.30;99.90;;;;;;5056418;28;20037;-68
2022/09/07 05:48:45;;;;;;;23.15;20.52;;;17.70;99.90;;;;;;5057903;28;20033;-68
2022/09/07 05:51:12;;;;;;;27.15;23.23;;;17.60;99.90;;;;;;5056143;28;20502;-68
2022/09/07 05:53:40;;;;;;;26.35;22.23;;;17.50;99.90;;;;;;5057703;28;20041;-68
2022/09/07 05:56:07;;;;;;;25.95;22.17;;;17.40;99.90;;;;;;5057607;28;20037;-68
2022/09/07 05:58:35;;;;;;;26.88;21.52;;;17.50;99.90;;;;;;5057393;28;20253;-68
2022/09/07 06:01:05;;;;;;;34.00;22.30;;;17.00;99.90;;;;;;5055968;28;20056;-68
2022/09/07 06:03:31;;;;;;;29.48;23.67;;;17.20;99.90;;;;;;5053625;28;20151;-68
2022/09/07 06:06:12;;;;;;;30.50;23.85;;;17.00;99.90;;;;;;5054425;28;20044;-68
2022/09/07 06:08:42;;;;;;;33.15;27.65;;;17.10;99.90;;;;;;5053066;28;20045;-69
2022/09/07 06:11:17;;;;;;;31.08;27.67;;;16.90;99.90;;;;;;5053897;28;20491;-67
2022/09/07 06:13:43;;;;;;;31.30;25.73;;;17.20;99.90;;;;;;5054384;28;20032;-68
2022/09/07 06:16:10;;;;;;;35.25;28.23;;;17.20;99.90;;;;;;5054179;28;20533;-68
2022/09/07 06:18:40;;;;;;;32.47;26.90;;;17.50;99.90;;;;;;5054295;28;20051;-68
2022/09/07 06:21:08;;;;;;;38.08;29.95;;;17.10;99.90;;;;;;5053868;28;20052;-68
2022/09/07 06:23:36;;;;;;;38.53;29.20;;;17.00;99.90;;;;;;5053914;28;20040;-68
2022/09/07 06:26:02;;;;;;;37.58;29.17;;;17.10;99.90;;;;;;5052711;28;20127;-68
2022/09/07 06:28:33;;;;;;;35.95;30.15;;;17.40;99.90;;;;;;5052716;28;20037;-68
2022/09/07 06:31:03;;;;;;;32.13;27.02;;;17.50;99.90;;;;;;5053632;28;20519;-68
2022/09/07 06:33:29;;;;;;;31.08;25.73;;;17.30;99.90;;;;;;5053754;28;20520;-68
2022/09/07 06:36:19;;;;;;;27.60;23.75;;;17.20;99.90;;;;;;5053804;28;20120;-69
2022/09/07 06:38:45;;;;;;;28.52;20.38;;;17.50;99.90;;;;;;5053520;28;20060;-69
2022/09/07 06:41:37;;;;;;;28.25;22.75;;;17.70;99.90;;;;;;5053626;28;20403;-69
2022/09/07 06:44:03;;;;;;;25.45;21.23;;;17.40;99.90;;;;;;5052581;28;20144;-68
2022/09/07 06:46:29;;;;;;;25.77;21.80;;;17.80;99.90;;;;;;5053512;28;20119;-68
2022/09/07 06:48:54;;;;;;;28.40;22.85;;;17.80;99.90;;;;;;5052427;28;20044;-68
2022/09/07 06:51:25;;;;;;;27.77;21.52;;;17.60;99.90;;;;;;5053360;28;20037;-69
2022/09/07 06:53:53;;;;;;;27.33;22.00;;;17.80;99.90;;;;;;5053662;28;20109;-69
2022/09/07 06:56:19;;;;;;;24.98;22.35;;;18.00;99.90;;;;;;5052052;28;20045;-70
2022/09/07 06:58:45;;;;;;;26.55;22.02;;;17.80;99.90;;;;;;5053314;28;20121;-70
2022/09/07 07:01:16;;;;;;;24.92;22.23;;;18.20;99.90;;;;;;5053276;28;20037;-70
2022/09/07 07:03:43;;;;;;;23.60;20.70;;;17.90;99.90;;;;;;5052325;28;20132;-70
2022/09/07 07:06:09;;;;;;;25.63;21.02;;;18.30;99.90;;;;;;5053303;28;20037;-69
2022/09/07 07:08:35;;;;;;;26.25;22.23;;;18.10;99.90;;;;;;5053357;28;20503;-70
2022/09/07 07:11:08;;;;;;;24.50;20.35;;;18.00;99.90;;;;;;5052892;28;20037;-70
2022/09/07 07:13:34;;;;;;;;;;;18.10;99.90;;;;;;5053183;28;20040;-70
2022/09/07 07:16:02;;;;;;;24.83;20.67;;;17.90;99.90;;;;;;5051862;28;20310;-70
2022/09/07 07:18:27;;;;;;;24.33;20.90;;;18.20;99.90;;;;;;5053034;28;20052;-70
2022/09/07 07:20:53;;;;;;;25.92;23.20;;;18.00;99.90;;;;;;5052811;28;20041;-69
2022/09/07 07:23:18;;;;;;;26.15;23.33;;;17.80;99.90;;;;;;5053008;28;20040;-69
2022/09/07 07:25:44;;;;;;;26.58;22.60;;;18.30;99.90;;;;;;5052748;28;20510;-69
2022/09/07 07:28:09;;;;;;;26.30;21.95;;;18.20;99.90;;;;;;5052752;28;20052;-69
2022/09/07 07:30:35;;;;;;;22.88;20.42;;;18.20;99.90;;;;;;5051274;28;20072;-69
2022/09/07 07:33:00;;;;;;;25.50;22.17;;;18.10;99.90;;;;;;5052618;28;20045;-69
2022/09/07 07:35:26;;;;;;;26.08;23.23;;;18.30;99.90;;;;;;5052814;28;20048;-70
2022/09/07 07:37:52;;;;;;;23.90;21.08;;;18.30;99.90;;;;;;5047147;28;20041;-68
2022/09/07 07:40:18;;;;;;;24.83;20.88;;;18.30;99.90;;;;;;5041599;28;20074;-68
2022/09/07 07:42:44;;;;;;;24.25;20.90;;;18.10;99.90;;;;;;5048116;28;20049;-68
2022/09/07 07:45:10;;;;;;;24.85;22.17;;;18.00;99.90;;;;;;5052711;28;20037;-67
2022/09/07 07:47:37;;;;;;;25.52;22.58;;;17.90;99.90;;;;;;5052563;28;20037;-68
2022/09/07 07:50:05;;;;;;;25.58;22.88;;;17.90;99.90;;;;;;5048967;28;20029;-68
2022/09/07 07:52:35;;;;;;;26.77;23.48;;;17.80;99.90;;;;;;5049199;28;20483;-67
2022/09/07 07:55:02;;;;;;;26.23;23.05;;;18.00;99.90;;;;;;5051550;28;20037;-69
2022/09/07 07:57:28;;;;;;;25.88;22.70;;;18.30;99.90;;;;;;5046583;28;20041;-67
2022/09/07 07:59:54;;;;;;;25.40;22.73;;;18.30;99.90;;;;;;5051999;28;20114;-67
2022/09/07 08:02:20;;;;;;;27.48;24.00;;;18.10;99.90;;;;;;5052317;28;20594;-67
2022/09/07 08:04:45;;;;;;;27.73;24.33;;;18.20;99.90;;;;;;5050839;28;20045;-69
2022/09/07 08:07:11;;;;;;;30.17;23.08;;;18.10;99.90;;;;;;5052104;28;20041;-69
2022/09/07 08:09:41;;;;;;;26.90;24.15;;;18.10;99.90;;;;;;5051596;28;20041;-68
2022/09/07 08:12:08;;;;;;;25.42;22.75;;;18.10;99.90;;;;;;5052244;28;20368;-67
2022/09/07 08:14:39;;;;;;;31.73;24.85;;;18.20;99.90;;;;;;5052199;28;20051;-67
2022/09/07 08:17:08;;;;;;;26.50;23.70;;;18.20;99.90;;;;;;5052133;28;20123;-69
2022/09/07 08:19:33;;;;;;;27.83;23.52;;;18.10;99.90;;;;;;5051728;28;20044;-69
2022/09/07 08:21:59;;;;;;;30.08;24.70;;;18.20;99.90;;;;;;5051934;28;20041;-67
2022/09/07 08:24:24;;;;;;;26.88;23.98;;;18.50;99.90;;;;;;5051654;28;20044;-68
2022/09/07 08:26:51;;;;;;;29.13;24.98;;;18.50;99.90;;;;;;5051394;28;20120;-67
2022/09/07 08:29:16;;;;;;;27.65;24.17;;;18.30;99.90;;;;;;5051670;28;20406;-69
2022/09/07 08:31:43;;;;;;;28.27;24.92;;;18.30;99.90;;;;;;5076361;22;20045;-67
2022/09/07 08:34:09;;;;;;;28.02;24.88;;;18.30;99.90;;;;;;5110555;28;20043;-67
2022/09/07 08:36:34;;;;;;;28.90;23.67;;;18.50;99.90;;;;;;5112788;28;20031;-67
2022/09/07 08:39:00;;;;;;;29.83;25.42;;;18.60;99.90;;;;;;5111402;28;20131;-67
2022/09/07 08:41:38;;;;;;;26.55;23.05;;;18.80;99.90;;;;;;5112238;28;20126;-67
2022/09/07 08:44:09;;;;;;;28.10;23.92;;;18.60;99.90;;;;;;5090306;28;20114;-67
2022/09/07 08:46:37;;;;;;;26.58;23.88;;;18.60;99.90;;;;;;5090492;28;20569;-67
2022/09/07 08:49:05;;;;;;;25.23;22.55;;;19.10;99.90;;;;;;5092164;28;20036;-67
2022/09/07 08:51:48;;;;;;;25.25;22.02;;;19.00;99.90;;;;;;5091761;28;20032;-67
2022/09/07 08:54:15;;;;;;;24.13;21.63;;;19.30;99.90;;;;;;5091386;28;20436;-67
2022/09/07 08:56:50;;;;;;;29.55;22.67;;;19.00;99.90;;;;;;5090521;28;20036;-67
2022/09/07 08:59:21;;;;;;;25.02;21.48;;;19.40;99.90;;;;;;5090565;28;20119;-67
2022/09/07 09:01:47;;;;;;;25.13;22.08;;;19.30;99.90;;;;;;5091928;28;20034;-66
2022/09/07 09:04:24;;;;;;;26.35;22.00;;;19.20;99.90;;;;;;5091838;28;20426;-67
2022/09/07 09:07:15;;;;;;;28.48;22.45;;;19.30;99.90;;;;;;5091784;28;20082;-68
2022/09/07 09:10:17;;;;;;;27.80;22.02;;;19.60;99.90;;;;;;5090395;28;20059;-67
2022/09/07 09:13:08;;;;;;;27.08;24.15;;;19.30;99.90;;;;;;5091670;28;20036;-68
2022/09/07 09:16:06;;;;;;;25.85;23.00;;;19.30;99.90;;;;;;5091543;28;20482;-67
2022/09/07 09:18:39;;;;;;;25.58;22.17;;;19.30;99.90;;;;;;5091777;28;20387;-68
2022/09/07 09:21:15;;;;;;;26.08;22.35;;;19.30;99.90;;;;;;5090058;28;20044;-67
2022/09/07 09:23:43;;;;;;;26.48;22.05;;;19.70;99.90;;;;;;5091412;28;20130;-68
2022/09/07 09:26:30;;;;;;;23.50;21.00;;;20.00;99.90;;;;;;5091354;28;20059;-68
2022/09/07 09:28:56;;;;;;;27.40;22.42;;;19.90;99.90;;;;;;5091424;28;20043;-69
2022/09/07 09:31:27;;;;;;;22.80;20.40;;;20.30;99.90;;;;;;5090061;28;20044;-68
2022/09/07 09:34:04;;;;;;;27.02;21.88;;;20.30;99.90;;;;;;5090341;28;20442;-68
2022/09/07 09:36:39;;;;;;;24.38;21.45;;;20.20;99.90;;;;;;5090471;28;20443;-68
2022/09/07 09:39:29;;;;;;;24.00;21.05;;;20.60;99.90;;;;;;5095373;28;20044;-68
2022/09/07 09:42:17;;;;;;;21.55;19.20;;;20.70;99.90;;;;;;5094156;28;20170;-68
2022/09/07 09:44:44;;;;;;;23.08;20.58;;;20.80;99.90;;;;;;5094632;28;20565;-68
2022/09/07 09:47:26;;;;;;;24.70;22.05;;;20.70;99.90;;;;;;5095204;28;20115;-68
2022/09/07 09:49:52;;;;;;;21.95;19.73;;;21.00;99.90;;;;;;5093559;28;20123;-68
2022/09/07 09:52:21;;;;;;;21.55;19.35;;;20.80;99.90;;;;;;5093648;28;20040;-67
2022/09/07 09:54:52;;;;;;;21.48;18.33;;;20.80;99.90;;;;;;5093647;28;20044;-68
2022/09/07 09:57:48;;;;;;;20.42;18.30;;;20.70;99.90;;;;;;5093497;28;20048;-68
2022/09/07 10:00:19;;;;;;;23.58;20.33;;;20.80;99.90;;;;;;5093487;28;20048;-68
2022/09/07 10:03:13;;;;;;;20.20;18.00;;;20.90;99.90;;;;;;5093912;28;20054;-68
2022/09/07 10:05:44;;;;;;;20.63;18.42;;;21.10;99.90;;;;;;5093456;28;20425;-68
2022/09/07 10:08:23;;;;;;;22.63;19.60;;;20.90;99.90;;;;;;5093334;28;20036;-68
2022/09/07 10:11:01;;;;;;;21.27;18.45;;;21.30;99.90;;;;;;5093057;28;20043;-68
2022/09/07 10:13:28;;;;;;;18.13;15.38;;;21.10;99.90;;;;;;5093343;28;20673;-68
2022/09/07 10:15:56;;;;;;;16.23;12.20;;;21.50;99.90;;;;;;5094495;28;20046;-67
2022/09/07 10:18:31;;;;;;;15.05;12.68;;;21.40;99.90;;;;;;5076254;28;20044;-67
2022/09/07 10:21:12;;;;;;;13.57;12.02;;;21.90;99.90;;;;;;5093136;28;20083;-69
2022/09/07 10:23:38;;;;;;;13.25;10.60;;;21.70;99.90;;;;;;5092952;28;20044;-68
2022/09/07 10:26:31;;;;;;;17.15;11.30;;;21.90;99.90;;;;;;5094314;28;20047;-67
2022/09/07 10:29:24;;;;;;;12.70;11.40;;;22.20;99.90;;;;;;5086759;28;20064;-67
2022/09/07 10:32:04;;;;;;;13.15;10.80;;;22.00;99.90;;;;;;5094245;28;20040;-67
2022/09/07 10:34:51;;;;;;;12.40;10.43;;;22.00;99.90;;;;;;5094053;28;20082;-67
2022/09/07 10:37:47;;;;;;;12.52;11.23;;;22.20;99.90;;;;;;5092940;28;20046;-68
2022/09/07 10:40:20;;;;;;;10.32;7.75;;;22.30;99.90;;;;;;5092472;28;20031;-67
2022/09/07 10:42:55;;;;;;;10.60;9.35;;;22.40;99.90;;;;;;5093993;28;20130;-67
2022/09/07 10:45:37;;;;;;;9.48;8.48;;;22.60;99.90;;;;;;5093792;28;20432;-67
2022/09/07 10:48:37;;;;;;;12.27;9.38;;;22.50;99.90;;;;;;5093021;28;20040;-67
2022/09/07 10:51:11;;;;;;;8.85;7.65;;;22.70;99.90;;;;;;5079540;28;20051;-68
2022/09/07 10:54:00;;;;;;;12.88;9.35;;;22.60;99.90;;;;;;5092329;28;20421;-68
2022/09/07 10:56:34;;;;;;;9.77;8.73;;;22.60;99.90;;;;;;5090028;28;20115;-68
2022/09/07 10:59:04;;;;;;;8.20;7.25;;;22.80;99.90;;;;;;5092377;28;20395;-67
2022/09/07 11:01:59;;;;;;;9.40;7.78;;;22.90;99.90;;;;;;5093527;28;20062;-67
2022/09/07 11:04:43;;;;;;;9.82;7.07;;;23.10;99.90;;;;;;5093697;28;20043;-67
2022/09/07 11:07:46;;;;;;;12.20;7.47;;;23.20;99.90;;;;;;5093723;28;20036;-68
2022/09/07 11:10:24;;;;;;;9.88;7.15;;;23.40;99.90;;;;;;5090938;28;20046;-67
2022/09/07 11:12:53;;;;;;;8.70;7.80;;;23.40;99.90;;;;;;5090477;28;20068;-67
2022/09/07 11:15:29;;;;;;;8.98;7.35;;;23.40;99.90;;;;;;5092785;28;20103;-67
2022/09/07 11:18:02;;;;;;;8.55;7.65;;;23.30;99.90;;;;;;5092986;28;20480;-67
2022/09/07 11:20:32;;;;;;;9.98;7.50;;;23.00;99.90;;;;;;5091380;28;20044;-67
2022/09/07 11:23:23;;;;;;;8.88;6.63;;;22.80;99.90;;;;;;5093326;28;20048;-66
2022/09/07 11:25:57;;;;;;;7.35;6.60;;;22.80;99.90;;;;;;5091859;28;20044;-67
2022/09/07 11:28:34;;;;;;;7.18;6.47;;;22.80;99.90;;;;;;5091969;28;20089;-67
2022/09/07 11:31:05;;;;;;;7.53;6.72;;;22.80;99.90;;;;;;5092737;28;20070;-67
2022/09/07 11:33:37;;;;;;;6.15;5.55;;;22.70;99.90;;;;;;5092087;28;20494;-66
2022/09/07 11:36:15;;;;;;;7.45;5.60;;;22.60;99.90;;;;;;5107823;28;20096;-67
2022/09/07 11:38:43;;;;;;;7.45;5.90;;;22.40;99.90;;;;;;5091998;28;20574;-66
2022/09/07 11:41:25;;;;;;;7.05;5.45;;;22.40;99.90;;;;;;5090921;28;20498;-68
2022/09/07 11:44:14;;;;;;;7.28;5.50;;;22.60;99.90;;;;;;5090629;28;20048;-68
2022/09/07 11:46:49;;;;;;;4.70;4.13;;;22.50;99.90;;;;;;5091915;28;20406;-68
2022/09/07 11:49:24;;;;;;;6.38;5.07;;;22.70;99.90;;;;;;5107309;28;20044;-67
2022/09/07 11:52:29;;;;;;;5.68;5.18;;;22.90;99.90;;;;;;5091663;28;20035;-67
2022/09/07 11:54:58;;;;;;;6.13;4.90;;;23.00;99.90;;;;;;5090804;28;20075;-67
2022/09/07 11:57:46;;;;;;;5.22;4.68;;;22.80;99.90;;;;;;5090452;28;20054;-67
2022/09/07 12:00:47;;;;;;;5.55;4.75;;;22.80;99.90;;;;;;5085337;28;20047;-67
2022/09/07 12:03:30;;;;;;;4.63;3.80;;;22.90;99.90;;;;;;5090061;28;20036;-68
2022/09/07 12:06:37;;;;;;;6.65;4.25;;;23.10;99.90;;;;;;5087647;28;20233;-67
2022/09/07 12:09:17;;;;;;;7.10;4.60;;;23.10;99.90;;;;;;5048737;28;20044;-67
2022/09/07 12:12:06;;;;;;;4.60;3.80;;;23.20;99.90;;;;;;5086677;28;20044;-67
2022/09/07 12:14:54;;;;;;;5.47;3.78;;;23.20;99.90;;;;;;5072378;28;20378;-66
2022/09/07 12:17:32;;;;;;;4.63;3.80;;;23.20;99.90;;;;;;5090241;28;20036;-67
2022/09/07 12:20:26;;;;;;;6.13;4.00;;;23.10;99.90;;;;;;5089812;28;20036;-67
2022/09/07 12:22:56;;;;;;;5.50;3.20;;;23.00;99.40;;;;;;5075833;28;20075;-67
2022/09/07 12:25:22;;;;;;;4.55;3.67;;;22.90;99.90;;;;;;5073177;28;20051;-66
2022/09/07 12:27:48;;;;;;;4.85;3.38;;;22.90;99.90;;;;;;5090294;28;20469;-67
2022/09/07 12:30:14;;;;;;;3.72;3.30;;;23.00;99.90;;;;;;5089672;28;20036;-68
2022/09/07 12:32:45;;;;;;;3.45;2.30;;;23.20;99.90;;;;;;5054292;28;1010164;-67
2022/09/07 12:35:28;;;;;;;4.65;2.85;;;23.20;99.90;;;;;;5091973;28;20044;-68
2022/09/07 12:38:18;;;;;;;4.03;2.40;;;23.40;99.90;;;;;;5092186;28;20127;-68
2022/09/07 12:41:03;;;;;;;4.43;2.67;;;23.50;99.70;;;;;;5090375;28;20059;-69
2022/09/07 12:43:47;;;;;;;3.13;2.15;;;23.50;99.30;;;;;;5091847;28;20040;-68
2022/09/07 12:46:31;;;;;;;3.67;2.03;;;23.70;98.50;;;;;;5090522;28;20047;-68
2022/09/07 12:49:38;;;;;;;3.55;2.38;;;23.70;98.80;;;;;;5090455;28;20077;-68
2022/09/07 12:52:25;;;;;;;2.95;2.20;;;23.70;98.50;;;;;;5076842;28;20076;-68
2022/09/07 12:55:26;;;;;;;3.25;2.00;;;23.70;97.30;;;;;;5090479;28;20082;-68
2022/09/07 12:58:12;;;;;;;3.88;2.28;;;23.70;96.80;;;;;;5077174;28;20181;-68
2022/09/07 13:00:47;;;;;;;2.67;1.95;;;23.70;96.50;;;;;;5091391;28;20043;-68
2022/09/07 13:03:31;;;;;;;3.08;2.28;;;23.80;97.00;;;;;;5091756;28;20058;-67